createdAt,value
2018-08-03T00:00:01.116Z,22.78
2018-08-03T00:01:01.460Z,22.84
2018-08-03T00:02:01.114Z,22.86
2018-08-03T00:03:01.443Z,22.77
2018-08-03T00:04:01.458Z,22.78
2018-08-03T00:05:01.102Z,22.84
2018-08-03T00:06:01.444Z,22.84
2018-08-03T00:07:01.436Z,22.84
2018-08-03T00:08:01.080Z,22.83
2018-08-03T00:09:01.419Z,22.80
2018-08-03T00:10:01.082Z,22.80
2018-08-03T00:11:01.394Z,22.77
2018-08-03T00:12:01.071Z,22.86
2018-08-03T00:13:01.052Z,22.78
2018-08-03T00:14:01.055Z,22.84
2018-08-03T00:15:01.395Z,22.82
2018-08-03T00:16:01.049Z,22.80
2018-08-03T00:17:01.022Z,22.78
2018-08-03T00:18:01.346Z,22.72
2018-08-03T00:19:01.355Z,22.75
2018-08-03T00:20:00.999Z,22.74
2018-08-03T00:21:01.326Z,22.77
2018-08-03T00:22:00.994Z,22.72
2018-08-03T00:23:01.315Z,22.77
2018-08-03T00:24:01.325Z,22.78
2018-08-03T00:25:01.311Z,22.78
2018-08-03T00:26:01.306Z,22.78
2018-08-03T00:27:01.293Z,22.83
2018-08-03T00:28:01.291Z,22.82
2018-08-03T00:29:01.272Z,22.87
2018-08-03T00:30:01.292Z,22.82
2018-08-03T00:31:01.278Z,22.78
2018-08-03T00:32:00.929Z,22.83
2018-08-03T00:33:01.266Z,22.90
2018-08-03T00:34:00.927Z,22.83
2018-08-03T00:35:01.254Z,22.86
2018-08-03T00:36:00.910Z,22.86
2018-08-03T00:37:00.895Z,22.93
2018-08-03T00:38:01.213Z,22.93
2018-08-03T00:39:01.209Z,22.92
2018-08-03T00:40:01.219Z,22.90
2018-08-03T00:41:00.871Z,22.87
2018-08-03T00:42:01.196Z,22.94
2018-08-03T00:43:00.845Z,22.86
2018-08-03T00:44:00.856Z,22.83
2018-08-03T00:45:01.189Z,22.83
2018-08-03T00:46:00.842Z,22.78
2018-08-03T00:47:00.827Z,22.77
2018-08-03T00:48:01.153Z,22.78
2018-08-03T00:49:00.828Z,22.83
2018-08-03T00:50:00.817Z,22.80
2018-08-03T00:51:00.803Z,22.80
2018-08-03T00:52:00.794Z,22.89
2018-08-03T00:53:00.785Z,22.83
2018-08-03T00:54:01.110Z,22.86
2018-08-03T00:55:01.122Z,22.83
2018-08-03T00:56:00.769Z,22.83
2018-08-03T00:57:00.765Z,22.83
2018-08-03T00:58:01.087Z,22.82
2018-08-03T00:59:00.766Z,22.93
2018-08-03T01:00:01.064Z,22.80
2018-08-03T01:01:00.744Z,22.80
2018-08-03T01:02:00.744Z,22.80
2018-08-03T01:03:01.052Z,22.78
2018-08-03T01:04:00.709Z,22.84
2018-08-03T01:05:01.041Z,22.83
2018-08-03T01:06:00.702Z,22.83
2018-08-03T01:07:00.709Z,22.82
2018-08-03T01:08:01.022Z,22.78
2018-08-03T01:09:01.032Z,22.75
2018-08-03T01:10:01.003Z,22.80
2018-08-03T01:11:01.001Z,22.78
2018-08-03T01:12:01.010Z,22.83
2018-08-03T01:13:00.990Z,22.77
2018-08-03T01:14:00.672Z,22.80
2018-08-03T01:15:00.661Z,22.78
2018-08-03T01:16:00.985Z,22.84
2018-08-03T01:17:00.980Z,22.84
2018-08-03T01:18:00.640Z,22.82
2018-08-03T01:19:00.642Z,22.78
2018-08-03T01:20:00.952Z,22.80
2018-08-03T01:21:00.944Z,22.80
2018-08-03T01:22:00.950Z,22.82
2018-08-03T01:23:00.942Z,22.90
2018-08-03T01:24:00.941Z,22.86
2018-08-03T01:25:00.594Z,22.90
2018-08-03T01:26:00.922Z,22.97
2018-08-03T01:27:00.906Z,22.83
2018-08-03T01:28:00.891Z,22.86
2018-08-03T01:29:00.886Z,22.90
2018-08-03T01:30:00.881Z,22.92
2018-08-03T01:31:00.878Z,22.93
2018-08-03T01:32:00.884Z,22.97
2018-08-03T01:33:00.532Z,22.94
2018-08-03T01:34:00.527Z,22.89
2018-08-03T01:35:00.844Z,22.87
2018-08-03T01:36:00.849Z,22.97
2018-08-03T01:37:00.851Z,22.93
2018-08-03T01:38:00.827Z,22.94
2018-08-03T01:39:00.829Z,22.92
2018-08-03T01:40:00.815Z,22.83
2018-08-03T01:41:00.478Z,22.86
2018-08-03T01:42:00.801Z,22.93
2018-08-03T01:43:00.812Z,22.93
2018-08-03T01:44:00.804Z,22.90
2018-08-03T01:45:00.782Z,22.92
2018-08-03T01:46:00.461Z,22.97
2018-08-03T01:47:00.766Z,22.96
2018-08-03T01:48:00.433Z,22.99
2018-08-03T01:49:00.438Z,23.01
2018-08-03T01:50:00.768Z,23.01
2018-08-03T01:51:00.420Z,22.96
2018-08-03T01:52:00.763Z,22.92
2018-08-03T01:53:00.389Z,22.99
2018-08-03T01:54:00.742Z,23.01
2018-08-03T01:55:00.428Z,23.02
2018-08-03T01:56:00.707Z,23.04
2018-08-03T01:57:00.386Z,22.99
2018-08-03T01:58:00.700Z,23.09
2018-08-03T01:59:00.697Z,23.11
2018-08-03T02:00:00.685Z,23.09
2018-08-03T02:01:00.679Z,23.08
2018-08-03T02:02:00.335Z,23.14
2018-08-03T02:03:00.341Z,23.09
2018-08-03T02:04:00.678Z,23.09
2018-08-03T02:05:00.336Z,23.05
2018-08-03T02:06:00.651Z,23.08
2018-08-03T02:07:00.316Z,23.04
2018-08-03T02:08:00.633Z,23.11
2018-08-03T02:09:00.297Z,23.07
2018-08-03T02:10:00.621Z,23.11
2018-08-03T02:11:00.295Z,23.15
2018-08-03T02:12:00.625Z,23.14
2018-08-03T02:13:00.604Z,23.19
2018-08-03T02:14:00.265Z,23.22
2018-08-03T02:15:00.275Z,23.17
2018-08-03T02:16:00.601Z,23.17
2018-08-03T02:17:00.264Z,23.19
2018-08-03T02:18:00.260Z,23.17
2018-08-03T02:19:00.560Z,23.22
2018-08-03T02:20:00.248Z,23.22
2018-08-03T02:21:00.572Z,23.19
2018-08-03T02:22:00.565Z,23.23
2018-08-03T02:23:00.556Z,23.19
2018-08-03T02:24:00.536Z,23.15
2018-08-03T02:25:00.547Z,23.17
2018-08-03T02:26:00.539Z,23.19
2018-08-03T02:27:00.186Z,23.22
2018-08-03T02:28:00.170Z,23.22
2018-08-03T02:29:00.524Z,23.19
2018-08-03T02:30:00.185Z,23.22
2018-08-03T02:31:00.178Z,23.19
2018-08-03T02:32:00.483Z,23.20
2018-08-03T02:33:00.161Z,23.20
2018-08-03T02:34:00.491Z,23.22
2018-08-03T02:35:00.156Z,23.26
2018-08-03T02:36:00.468Z,23.24
2018-08-03T02:37:00.128Z,23.15
2018-08-03T02:38:00.112Z,23.22
2018-08-03T02:39:00.464Z,23.19
2018-08-03T02:40:00.424Z,23.15
2018-08-03T02:41:00.090Z,23.23
2018-08-03T02:42:00.108Z,23.19
2018-08-03T02:43:00.099Z,23.17
2018-08-03T02:44:00.069Z,23.22
2018-08-03T02:45:00.418Z,23.17
2018-08-03T02:46:00.402Z,23.20
2018-08-03T02:47:00.413Z,23.19
2018-08-03T02:48:00.076Z,23.20
2018-08-03T02:49:00.393Z,23.19
2018-08-03T02:50:00.043Z,23.22
2018-08-03T02:51:00.042Z,23.20
2018-08-03T02:52:00.374Z,23.17
2018-08-03T02:53:00.033Z,23.19
2018-08-03T02:54:00.351Z,23.24
2018-08-03T02:55:00.356Z,23.17
2018-08-03T02:56:00.006Z,23.22
2018-08-03T02:57:00.324Z,23.19
2018-08-03T02:57:59.993Z,23.19
2018-08-03T02:58:59.969Z,23.17
2018-08-03T02:59:59.991Z,23.22
2018-08-03T03:00:59.962Z,23.19
2018-08-03T03:02:00.301Z,23.17
2018-08-03T03:03:00.289Z,23.17
2018-08-03T03:03:59.954Z,23.23
2018-08-03T03:05:00.276Z,23.22
2018-08-03T03:06:00.296Z,23.22
2018-08-03T03:07:00.271Z,23.19
2018-08-03T03:08:00.274Z,23.20
2018-08-03T03:09:00.251Z,23.19
2018-08-03T03:09:59.907Z,23.17
2018-08-03T03:10:59.922Z,23.22
2018-08-03T03:11:59.903Z,23.23
2018-08-03T03:12:59.912Z,23.17
2018-08-03T03:13:59.895Z,23.22
2018-08-03T03:14:59.895Z,23.26
2018-08-03T03:16:00.211Z,23.24
2018-08-03T03:16:59.873Z,23.22
2018-08-03T03:18:00.204Z,23.20
2018-08-03T03:19:00.207Z,23.19
2018-08-03T03:19:59.873Z,23.19
2018-08-03T03:20:59.863Z,23.17
2018-08-03T03:22:00.169Z,23.15
2018-08-03T03:22:59.851Z,23.17
2018-08-03T03:23:59.843Z,23.17
2018-08-03T03:24:59.827Z,23.19
2018-08-03T03:25:59.832Z,23.14
2018-08-03T03:26:59.805Z,23.15
2018-08-03T03:28:00.135Z,23.17
2018-08-03T03:28:59.803Z,23.17
2018-08-03T03:29:59.814Z,23.14
2018-08-03T03:31:00.628Z,23.08
2018-08-03T03:32:00.128Z,23.15
2018-08-03T03:33:00.102Z,23.12
2018-08-03T03:34:00.113Z,23.15
2018-08-03T03:35:00.088Z,23.14
2018-08-03T03:36:00.084Z,23.12
2018-08-03T03:37:00.073Z,23.14
2018-08-03T03:38:00.070Z,23.19
2018-08-03T03:38:59.745Z,23.14
2018-08-03T03:40:00.056Z,23.08
2018-08-03T03:41:00.046Z,23.04
2018-08-03T03:42:00.053Z,23.11
2018-08-03T03:43:00.057Z,23.11
2018-08-03T03:43:59.709Z,23.17
2018-08-03T03:45:00.037Z,23.08
2018-08-03T03:45:59.697Z,23.17
2018-08-03T03:46:59.686Z,23.14
2018-08-03T03:48:00.026Z,23.05
2018-08-03T03:48:59.669Z,23.07
2018-08-03T03:50:00.033Z,23.08
2018-08-03T03:50:59.692Z,23.04
2018-08-03T03:51:59.990Z,23.05
2018-08-03T03:52:59.648Z,23.05
2018-08-03T03:53:59.986Z,23.09
2018-08-03T03:54:59.643Z,23.12
2018-08-03T03:55:59.661Z,23.09
2018-08-03T03:56:59.631Z,23.07
2018-08-03T03:57:59.625Z,23.15
2018-08-03T03:58:59.937Z,23.07
2018-08-03T03:59:59.603Z,23.09
2018-08-03T04:00:59.927Z,23.04
2018-08-03T04:01:59.943Z,23.02
2018-08-03T04:02:59.614Z,23.09
2018-08-03T04:03:59.590Z,23.12
2018-08-03T04:04:59.923Z,23.11
2018-08-03T04:05:59.580Z,23.08
2018-08-03T04:06:59.909Z,23.09
2018-08-03T04:07:59.881Z,23.08
2018-08-03T04:08:59.542Z,23.09
2018-08-03T04:09:59.554Z,23.04
2018-08-03T04:10:59.553Z,23.05
2018-08-03T04:11:59.874Z,23.11
2018-08-03T04:12:59.873Z,23.12
2018-08-03T04:13:59.833Z,23.08
2018-08-03T04:14:59.528Z,22.99
2018-08-03T04:15:59.847Z,22.99
2018-08-03T04:16:59.492Z,23.11
2018-08-03T04:17:59.813Z,23.14
2018-08-03T04:18:59.815Z,23.09
2018-08-03T04:19:59.492Z,23.04
2018-08-03T04:20:59.468Z,23.11
2018-08-03T04:21:59.807Z,22.99
2018-08-03T04:22:59.787Z,23.09
2018-08-03T04:23:59.779Z,22.94
2018-08-03T04:24:59.788Z,23.01
2018-08-03T04:25:59.425Z,23.07
2018-08-03T04:26:59.433Z,22.93
2018-08-03T04:27:59.753Z,22.99
2018-08-03T04:28:59.416Z,23.02
2018-08-03T04:29:59.753Z,23.01
2018-08-03T04:30:59.749Z,22.93
2018-08-03T04:31:59.746Z,23.01
2018-08-03T04:32:59.736Z,23.02
2018-08-03T04:33:59.732Z,23.05
2018-08-03T04:34:59.384Z,22.99
2018-08-03T04:35:59.385Z,23.01
2018-08-03T04:36:59.367Z,23.09
2018-08-03T04:37:59.352Z,23.01
2018-08-03T04:38:59.759Z,23.09
2018-08-03T04:39:59.696Z,22.99
2018-08-03T04:40:59.675Z,23.09
2018-08-03T04:41:59.368Z,23.11
2018-08-03T04:42:59.659Z,23.11
2018-08-03T04:43:59.347Z,23.08
2018-08-03T04:44:59.329Z,22.99
2018-08-03T04:45:59.319Z,23.11
2018-08-03T04:46:59.337Z,22.97
2018-08-03T04:47:59.625Z,22.97
2018-08-03T04:48:59.635Z,22.99
2018-08-03T04:49:59.616Z,22.99
2018-08-03T04:50:59.304Z,23.05
2018-08-03T04:51:59.601Z,23.05
2018-08-03T04:52:59.614Z,23.05
2018-08-03T04:53:59.606Z,23.09
2018-08-03T04:54:59.601Z,23.04
2018-08-03T04:55:59.248Z,23.02
2018-08-03T04:56:59.242Z,22.93
2018-08-03T04:57:59.230Z,23.01
2018-08-03T04:58:59.576Z,22.99
2018-08-03T04:59:59.553Z,22.94
2018-08-03T05:00:59.231Z,22.92
2018-08-03T05:01:59.532Z,22.94
2018-08-03T05:02:59.532Z,23.02
2018-08-03T05:03:59.525Z,23.05
2018-08-03T05:04:59.200Z,23.08
2018-08-03T05:05:59.509Z,22.96
2018-08-03T05:06:59.506Z,22.99
2018-08-03T05:07:59.515Z,23.04
2018-08-03T05:08:59.490Z,23.01
2018-08-03T05:09:59.479Z,22.93
2018-08-03T05:10:59.166Z,22.93
2018-08-03T05:11:59.156Z,23.02
2018-08-03T05:12:59.501Z,23.01
2018-08-03T05:13:59.479Z,22.97
2018-08-03T05:14:59.482Z,23.04
2018-08-03T05:15:59.448Z,22.99
2018-08-03T05:16:59.123Z,23.04
2018-08-03T05:17:59.439Z,22.96
2018-08-03T05:18:59.096Z,22.93
2018-08-03T05:19:59.080Z,23.07
2018-08-03T05:20:59.419Z,22.99
2018-08-03T05:21:59.087Z,22.96
2018-08-03T05:22:59.419Z,22.93
2018-08-03T05:23:59.398Z,22.94
2018-08-03T05:24:59.066Z,22.93
2018-08-03T05:25:59.385Z,22.94
2018-08-03T05:26:59.375Z,22.96
2018-08-03T05:27:59.066Z,22.94
2018-08-03T05:28:59.358Z,23.02
2018-08-03T05:29:59.032Z,22.97
2018-08-03T05:30:59.027Z,23.02
2018-08-03T05:31:59.020Z,23.01
2018-08-03T05:32:59.021Z,22.97
2018-08-03T05:33:59.352Z,22.97
2018-08-03T05:34:58.985Z,23.02
2018-08-03T05:35:59.387Z,22.99
2018-08-03T05:36:58.979Z,23.02
2018-08-03T05:37:58.991Z,23.02
2018-08-03T05:38:58.992Z,23.01
2018-08-03T05:39:58.969Z,23.01
2018-08-03T05:40:58.968Z,23.01
2018-08-03T05:41:59.299Z,23.02
2018-08-03T05:42:59.275Z,22.96
2018-08-03T05:43:58.938Z,23.02
2018-08-03T05:44:58.924Z,22.97
2018-08-03T05:45:58.915Z,23.01
2018-08-03T05:46:58.912Z,22.97
2018-08-03T05:47:59.233Z,23.02
2018-08-03T05:48:58.918Z,22.93
2018-08-03T05:49:59.227Z,23.05
2018-08-03T05:50:59.249Z,22.96
2018-08-03T05:51:59.221Z,22.94
2018-08-03T05:52:59.240Z,22.97
2018-08-03T05:53:59.215Z,23.02
2018-08-03T05:54:59.186Z,22.99
2018-08-03T05:55:59.204Z,23.04
2018-08-03T05:56:59.185Z,23.02
2018-08-03T05:57:58.924Z,23.05
2018-08-03T05:58:59.173Z,23.02
2018-08-03T05:59:59.163Z,22.99
2018-08-03T06:00:59.178Z,22.96
2018-08-03T06:01:59.152Z,23.02
2018-08-03T06:02:59.165Z,23.01
2018-08-03T06:03:59.198Z,22.99
2018-08-03T06:04:58.817Z,23.01
2018-08-03T06:05:59.148Z,22.99
2018-08-03T06:06:59.136Z,22.99
2018-08-03T06:07:59.139Z,23.02
2018-08-03T06:08:59.122Z,22.97
2018-08-03T06:09:59.102Z,22.99
2018-08-03T06:10:59.097Z,23.02
2018-08-03T06:11:58.745Z,22.99
2018-08-03T06:12:58.777Z,22.97
2018-08-03T06:13:59.095Z,22.94
2018-08-03T06:14:58.759Z,22.94
2018-08-03T06:15:59.061Z,22.99
2018-08-03T06:16:58.722Z,22.97
2018-08-03T06:17:58.734Z,22.94
2018-08-03T06:18:59.067Z,22.97
2018-08-03T06:19:59.037Z,22.93
2018-08-03T06:20:58.716Z,22.94
2018-08-03T06:21:59.046Z,22.93
2018-08-03T06:22:59.038Z,22.97
2018-08-03T06:23:58.683Z,22.93
2018-08-03T06:24:58.687Z,22.94
2018-08-03T06:25:58.997Z,22.93
2018-08-03T06:26:58.993Z,22.92
2018-08-03T06:27:59.003Z,23.01
2018-08-03T06:28:58.670Z,22.99
2018-08-03T06:29:58.637Z,22.97
2018-08-03T06:30:58.650Z,22.96
2018-08-03T06:31:58.980Z,22.94
2018-08-03T06:32:58.954Z,22.97
2018-08-03T06:33:59.001Z,22.94
2018-08-03T06:34:58.611Z,22.90
2018-08-03T06:35:58.617Z,22.93
2018-08-03T06:36:58.598Z,22.93
2018-08-03T06:37:58.609Z,22.96
2018-08-03T06:38:58.593Z,22.94
2018-08-03T06:39:58.591Z,22.93
2018-08-03T06:40:58.590Z,22.94
2018-08-03T06:41:58.896Z,23.01
2018-08-03T06:42:58.566Z,22.92
2018-08-03T06:43:58.571Z,22.93
2018-08-03T06:44:58.886Z,23.01
2018-08-03T06:45:58.887Z,22.96
2018-08-03T06:46:58.863Z,22.97
2018-08-03T06:47:58.875Z,22.90
2018-08-03T06:48:58.526Z,22.96
2018-08-03T06:49:58.528Z,22.96
2018-08-03T06:50:58.863Z,22.92
2018-08-03T06:51:58.850Z,22.94
2018-08-03T06:52:58.838Z,22.97
2018-08-03T06:53:58.523Z,22.96
2018-08-03T06:54:58.828Z,22.96
2018-08-03T06:55:58.808Z,22.96
2018-08-03T06:56:58.483Z,22.96
2018-08-03T06:57:58.489Z,22.82
2018-08-03T06:58:58.795Z,22.96
2018-08-03T06:59:58.797Z,22.87
2018-08-03T07:00:58.798Z,22.96
2018-08-03T07:01:58.427Z,22.96
2018-08-03T07:02:58.856Z,22.96
2018-08-03T07:03:58.460Z,22.96
2018-08-03T07:04:58.766Z,22.87
2018-08-03T07:05:58.763Z,22.90
2018-08-03T07:06:58.433Z,22.92
2018-08-03T07:07:58.747Z,22.92
2018-08-03T07:08:58.725Z,22.82
2018-08-03T07:09:58.718Z,22.90
2018-08-03T07:10:58.709Z,22.96
2018-08-03T07:11:58.706Z,22.92
2018-08-03T07:12:58.691Z,22.86
2018-08-03T07:13:58.709Z,22.87
2018-08-03T07:14:58.360Z,22.92
2018-08-03T07:15:58.358Z,22.87
2018-08-03T07:16:58.346Z,22.83
2018-08-03T07:17:58.327Z,22.87
2018-08-03T07:18:58.665Z,22.86
2018-08-03T07:19:58.352Z,22.89
2018-08-03T07:20:58.310Z,22.92
2018-08-03T07:21:58.654Z,22.83
2018-08-03T07:22:58.304Z,22.93
2018-08-03T07:23:58.626Z,22.89
2018-08-03T07:24:58.323Z,22.82
2018-08-03T07:25:58.666Z,22.86
2018-08-03T07:26:58.312Z,22.86
2018-08-03T07:27:58.285Z,22.80
2018-08-03T07:28:58.267Z,22.86
2018-08-03T07:29:58.292Z,22.86
2018-08-03T07:30:58.265Z,22.83
2018-08-03T07:31:58.589Z,22.80
2018-08-03T07:32:58.247Z,22.80
2018-08-03T07:33:58.577Z,22.86
2018-08-03T07:34:58.239Z,22.84
2018-08-03T07:35:58.236Z,22.82
2018-08-03T07:36:58.251Z,22.78
2018-08-03T07:37:58.536Z,22.83
2018-08-03T07:38:58.549Z,22.78
2018-08-03T07:39:58.200Z,22.77
2018-08-03T07:40:58.177Z,22.83
2018-08-03T07:41:58.556Z,22.87
2018-08-03T07:42:58.586Z,22.78
2018-08-03T07:43:58.189Z,22.78
2018-08-03T07:44:58.526Z,22.80
2018-08-03T07:45:58.170Z,22.82
2018-08-03T07:46:58.476Z,22.78
2018-08-03T07:47:58.172Z,22.83
2018-08-03T07:48:58.147Z,22.75
2018-08-03T07:49:58.138Z,22.82
2018-08-03T07:50:58.453Z,22.84
2018-08-03T07:51:58.106Z,22.84
2018-08-03T07:52:58.451Z,22.84
2018-08-03T07:53:58.444Z,22.84
2018-08-03T07:54:58.431Z,22.82
2018-08-03T07:55:58.437Z,22.78
2018-08-03T07:56:58.415Z,22.78
2018-08-03T07:57:58.421Z,22.83
2018-08-03T07:58:58.412Z,22.78
2018-08-03T07:59:58.389Z,22.83
2018-08-03T08:00:58.419Z,22.86
2018-08-03T08:01:58.378Z,22.82
2018-08-03T08:02:58.389Z,22.77
2018-08-03T08:03:58.381Z,22.82
2018-08-03T08:04:58.365Z,22.83
2018-08-03T08:05:58.374Z,22.78
2018-08-03T08:06:58.020Z,22.84
2018-08-03T08:07:58.335Z,22.84
2018-08-03T08:08:58.017Z,22.82
2018-08-03T08:09:58.328Z,22.82
2018-08-03T08:10:57.992Z,22.83
2018-08-03T08:11:58.332Z,22.77
2018-08-03T08:12:57.987Z,22.82
2018-08-03T08:13:57.970Z,22.78
2018-08-03T08:14:57.973Z,22.83
2018-08-03T08:15:58.287Z,22.83
2018-08-03T08:16:58.008Z,22.78
2018-08-03T08:17:57.946Z,22.74
2018-08-03T08:18:58.290Z,22.82
2018-08-03T08:19:57.943Z,22.78
2018-08-03T08:20:57.938Z,22.78
2018-08-03T08:21:58.263Z,22.82
2018-08-03T08:22:58.237Z,22.86
2018-08-03T08:23:58.229Z,22.83
2018-08-03T08:24:57.885Z,22.77
2018-08-03T08:25:57.907Z,22.75
2018-08-03T08:26:57.890Z,22.82
2018-08-03T08:27:57.894Z,22.78
2018-08-03T08:28:58.217Z,22.80
2018-08-03T08:29:58.214Z,22.77
2018-08-03T08:30:57.845Z,22.74
2018-08-03T08:31:57.875Z,22.83
2018-08-03T08:32:57.857Z,22.80
2018-08-03T08:33:58.196Z,22.77
2018-08-03T08:34:58.178Z,22.80
2018-08-03T08:35:57.837Z,22.82
2018-08-03T08:36:58.224Z,22.80
2018-08-03T08:37:57.824Z,22.77
2018-08-03T08:38:57.820Z,22.80
2018-08-03T08:39:58.127Z,22.77
2018-08-03T08:40:58.127Z,22.77
2018-08-03T08:41:58.119Z,22.74
2018-08-03T08:42:57.771Z,22.71
2018-08-03T08:43:58.291Z,22.72
2018-08-03T08:44:57.781Z,22.78
2018-08-03T08:45:58.090Z,22.77
2018-08-03T08:46:58.096Z,22.72
2018-08-03T08:47:58.094Z,22.77
2018-08-03T08:48:58.095Z,22.77
2018-08-03T08:49:58.073Z,22.74
2018-08-03T08:50:57.738Z,22.74
2018-08-03T08:51:58.049Z,22.77
2018-08-03T08:52:57.769Z,22.75
2018-08-03T08:53:58.045Z,22.78
2018-08-03T08:54:57.699Z,22.71
2018-08-03T08:55:57.713Z,22.77
2018-08-03T08:56:58.015Z,22.82
2018-08-03T08:57:58.030Z,22.77
2018-08-03T08:58:57.671Z,22.72
2018-08-03T08:59:58.018Z,22.80
2018-08-03T09:00:57.716Z,22.75
2018-08-03T09:01:57.675Z,22.77
2018-08-03T09:02:57.996Z,22.74
2018-08-03T09:03:57.656Z,22.80
2018-08-03T09:04:57.653Z,22.80
2018-08-03T09:05:57.633Z,22.78
2018-08-03T09:06:57.981Z,22.75
2018-08-03T09:07:57.946Z,22.71
2018-08-03T09:08:57.618Z,22.77
2018-08-03T09:09:57.624Z,22.74
2018-08-03T09:10:57.600Z,22.75
2018-08-03T09:11:57.610Z,22.75
2018-08-03T09:12:57.591Z,22.75
2018-08-03T09:13:57.927Z,22.82
2018-08-03T09:14:57.903Z,22.71
2018-08-03T09:15:57.919Z,22.78
2018-08-03T09:16:57.561Z,22.82
2018-08-03T09:17:57.904Z,22.72
2018-08-03T09:18:57.549Z,22.74
2018-08-03T09:19:57.535Z,22.74
2018-08-03T09:20:57.862Z,22.77
2018-08-03T09:21:57.587Z,22.77
2018-08-03T09:22:57.848Z,22.74
2018-08-03T09:23:57.843Z,22.72
2018-08-03T09:24:57.496Z,22.77
2018-08-03T09:25:57.513Z,22.77
2018-08-03T09:26:57.822Z,22.82
2018-08-03T09:27:57.832Z,22.72
2018-08-03T09:28:57.818Z,22.72
2018-08-03T09:29:57.803Z,22.74
2018-08-03T09:30:57.536Z,22.74
2018-08-03T09:31:57.477Z,22.83
2018-08-03T09:32:57.806Z,22.75
2018-08-03T09:33:57.770Z,22.80
2018-08-03T09:34:57.433Z,22.82
2018-08-03T09:35:57.763Z,22.83
2018-08-03T09:36:57.443Z,22.77
2018-08-03T09:37:57.753Z,22.75
2018-08-03T09:38:57.762Z,22.75
2018-08-03T09:39:57.449Z,22.72
2018-08-03T09:40:57.730Z,22.71
2018-08-03T09:41:57.725Z,22.78
2018-08-03T09:42:57.465Z,22.72
2018-08-03T09:43:57.393Z,22.72
2018-08-03T09:44:57.358Z,22.71
2018-08-03T09:45:57.708Z,22.77
2018-08-03T09:46:57.364Z,22.75
2018-08-03T09:47:57.357Z,22.75
2018-08-03T09:48:57.367Z,22.77
2018-08-03T09:49:57.687Z,22.80
2018-08-03T09:50:57.665Z,22.67
2018-08-03T09:51:57.321Z,22.78
2018-08-03T09:52:57.334Z,22.74
2018-08-03T09:53:57.311Z,22.72
2018-08-03T09:54:57.639Z,22.77
2018-08-03T09:55:57.305Z,22.71
2018-08-03T09:56:57.625Z,22.75
2018-08-03T09:57:57.311Z,22.80
2018-08-03T09:58:57.621Z,22.74
2018-08-03T09:59:57.627Z,22.77
2018-08-03T10:00:57.604Z,22.74
2018-08-03T10:01:57.590Z,22.78
2018-08-03T10:02:57.607Z,22.65
2018-08-03T10:03:57.267Z,22.68
2018-08-03T10:04:57.237Z,22.71
2018-08-03T10:05:57.583Z,22.75
2018-08-03T10:06:57.560Z,22.77
2018-08-03T10:07:57.574Z,22.71
2018-08-03T10:08:57.564Z,22.71
2018-08-03T10:09:57.215Z,22.75
2018-08-03T10:10:57.551Z,22.72
2018-08-03T10:11:57.529Z,22.71
2018-08-03T10:12:57.217Z,22.77
2018-08-03T10:13:57.204Z,22.69
2018-08-03T10:14:57.525Z,22.74
2018-08-03T10:15:57.212Z,22.72
2018-08-03T10:16:57.493Z,22.75
2018-08-03T10:17:57.158Z,22.78
2018-08-03T10:18:57.472Z,22.74
2018-08-03T10:19:57.492Z,22.77
2018-08-03T10:20:57.468Z,22.83
2018-08-03T10:21:57.156Z,22.72
2018-08-03T10:22:57.472Z,22.77
2018-08-03T10:23:57.133Z,22.68
2018-08-03T10:24:57.120Z,22.80
2018-08-03T10:25:57.461Z,22.74
2018-08-03T10:26:57.427Z,22.71
2018-08-03T10:27:57.444Z,22.77
2018-08-03T10:28:57.432Z,22.72
2018-08-03T10:29:57.102Z,22.75
2018-08-03T10:30:57.089Z,22.72
2018-08-03T10:31:57.397Z,22.75
2018-08-03T10:32:57.389Z,22.74
2018-08-03T10:33:57.063Z,22.75
2018-08-03T10:34:57.410Z,22.77
2018-08-03T10:35:57.052Z,22.64
2018-08-03T10:36:57.052Z,22.72
2018-08-03T10:37:57.361Z,22.69
2018-08-03T10:38:57.022Z,22.75
2018-08-03T10:39:57.362Z,22.74
2018-08-03T10:40:57.022Z,22.77
2018-08-03T10:41:57.329Z,22.65
2018-08-03T10:42:57.087Z,22.68
2018-08-03T10:43:57.316Z,22.65
2018-08-03T10:44:57.314Z,22.65
2018-08-03T10:45:56.979Z,22.77
2018-08-03T10:46:57.318Z,22.74
2018-08-03T10:47:57.294Z,22.74
2018-08-03T10:48:57.283Z,22.64
2018-08-03T10:49:56.951Z,22.74
2018-08-03T10:50:56.960Z,22.74
2018-08-03T10:51:56.925Z,22.75
2018-08-03T10:52:56.952Z,22.74
2018-08-03T10:53:57.252Z,22.68
2018-08-03T10:54:57.801Z,22.77
2018-08-03T10:55:57.240Z,22.65
2018-08-03T10:56:57.231Z,22.64
2018-08-03T10:57:57.250Z,22.72
2018-08-03T10:58:57.236Z,22.62
2018-08-03T10:59:56.904Z,22.68
2018-08-03T11:00:56.876Z,22.65
2018-08-03T11:01:56.882Z,22.62
2018-08-03T11:02:56.887Z,22.60
2018-08-03T11:03:56.872Z,22.59
2018-08-03T11:04:57.180Z,22.64
2018-08-03T11:05:57.173Z,22.67
2018-08-03T11:06:56.842Z,22.74
2018-08-03T11:07:56.836Z,22.72
2018-08-03T11:08:57.171Z,22.69
2018-08-03T11:09:56.827Z,22.72
2018-08-03T11:10:56.844Z,22.68
2018-08-03T11:11:57.131Z,22.68
2018-08-03T11:12:56.815Z,22.71
2018-08-03T11:13:57.159Z,22.65
2018-08-03T11:14:57.135Z,22.69
2018-08-03T11:15:57.134Z,22.72
2018-08-03T11:16:56.784Z,22.68
2018-08-03T11:17:57.099Z,22.69
2018-08-03T11:18:56.771Z,22.64
2018-08-03T11:19:56.759Z,22.64
2018-08-03T11:20:56.752Z,22.72
2018-08-03T11:21:57.083Z,22.68
2018-08-03T11:22:56.734Z,22.68
2018-08-03T11:23:56.727Z,22.72
2018-08-03T11:24:56.739Z,22.64
2018-08-03T11:25:57.043Z,22.65
2018-08-03T11:26:57.055Z,22.71
2018-08-03T11:27:57.027Z,22.71
2018-08-03T11:28:56.701Z,22.72
2018-08-03T11:29:56.678Z,22.65
2018-08-03T11:30:57.028Z,22.71
2018-08-03T11:31:57.000Z,22.69
2018-08-03T11:32:56.699Z,22.68
2018-08-03T11:33:56.657Z,22.67
2018-08-03T11:34:56.995Z,22.65
2018-08-03T11:35:56.989Z,22.72
2018-08-03T11:36:56.978Z,22.68
2018-08-03T11:37:56.960Z,22.60
2018-08-03T11:38:56.972Z,22.68
2018-08-03T11:39:56.624Z,22.68
2018-08-03T11:40:56.690Z,22.60
2018-08-03T11:41:56.617Z,22.65
2018-08-03T11:42:56.945Z,22.67
2018-08-03T11:43:56.921Z,22.67
2018-08-03T11:44:56.917Z,22.65
2018-08-03T11:45:56.598Z,22.69
2018-08-03T11:46:56.905Z,22.60
2018-08-03T11:47:56.917Z,22.62
2018-08-03T11:48:56.574Z,22.64
2018-08-03T11:49:56.892Z,22.64
2018-08-03T11:50:56.905Z,22.62
2018-08-03T11:51:56.884Z,22.67
2018-08-03T11:52:56.864Z,22.60
2018-08-03T11:53:56.924Z,22.57
2018-08-03T11:54:56.850Z,22.65
2018-08-03T11:55:56.864Z,22.60
2018-08-03T11:56:56.502Z,22.71
2018-08-03T11:57:56.521Z,22.59
2018-08-03T11:58:56.844Z,22.67
2018-08-03T11:59:56.836Z,22.57
2018-08-03T12:00:56.818Z,22.60
2018-08-03T12:01:56.555Z,22.64
2018-08-03T12:02:56.479Z,22.65
2018-08-03T12:03:56.476Z,22.59
2018-08-03T12:04:56.469Z,22.59
2018-08-03T12:05:56.474Z,22.56
2018-08-03T12:06:56.436Z,22.60
2018-08-03T12:07:56.467Z,22.57
2018-08-03T12:08:56.785Z,22.68
2018-08-03T12:09:56.446Z,22.57
2018-08-03T12:10:56.773Z,22.62
2018-08-03T12:11:56.401Z,22.57
2018-08-03T12:12:56.749Z,22.65
2018-08-03T12:13:56.407Z,22.64
2018-08-03T12:14:56.736Z,22.62
2018-08-03T12:15:56.711Z,22.64
2018-08-03T12:16:56.366Z,22.56
2018-08-03T12:17:56.437Z,22.60
2018-08-03T12:18:56.708Z,22.65
2018-08-03T12:19:56.356Z,22.59
2018-08-03T12:20:56.362Z,22.59
2018-08-03T12:21:56.359Z,22.57
2018-08-03T12:22:56.337Z,22.60
2018-08-03T12:23:56.742Z,22.62
2018-08-03T12:24:56.324Z,22.67
2018-08-03T12:25:56.647Z,22.59
2018-08-03T12:26:56.658Z,22.67
2018-08-03T12:27:56.637Z,22.53
2018-08-03T12:28:56.303Z,22.56
2018-08-03T12:29:56.628Z,22.53
2018-08-03T12:30:56.618Z,22.60
2018-08-03T12:31:56.610Z,22.57
2018-08-03T12:32:56.285Z,22.56
2018-08-03T12:33:56.277Z,22.60
2018-08-03T12:34:56.277Z,22.56
2018-08-03T12:35:56.244Z,22.67
2018-08-03T12:36:56.577Z,22.56
2018-08-03T12:37:56.591Z,22.64
2018-08-03T12:38:56.247Z,22.54
2018-08-03T12:39:56.241Z,22.60
2018-08-03T12:40:56.263Z,22.64
2018-08-03T12:41:56.546Z,22.67
2018-08-03T12:42:56.221Z,22.62
2018-08-03T12:43:56.548Z,22.62
2018-08-03T12:44:56.201Z,22.57
2018-08-03T12:45:56.242Z,22.64
2018-08-03T12:46:56.520Z,22.56
2018-08-03T12:47:56.167Z,22.54
2018-08-03T12:48:56.514Z,22.59
2018-08-03T12:49:56.179Z,22.59
2018-08-03T12:50:56.500Z,22.59
2018-08-03T12:51:56.160Z,22.62